Time;durP1;ratioP1;P1;durP2;ratioP2;P2;SDS_P1;SDS_P2;PMS_P1;PMS_P2;Temp;Humidity;BMP_temperature;BMP_pressure;BME280_temperature;BME280_humidity;BME280_pressure;Samples;Min_cycle;Max_cycle;Signal;HPM_P1;HPM_P2
2022/07/21 00:01:47;;;;;;;8.50;7.80;;;;;;;19.46;100.00;101700.00;5027267;28;20080;-57
2022/07/21 00:04:12;;;;;;;8.50;7.75;;;;;;;19.51;100.00;101700.03;5027167;28;20040;-59
2022/07/21 00:06:37;;;;;;;8.45;7.65;;;;;;;19.47;100.00;101693.84;5026657;28;20022;-59
2022/07/21 00:09:03;;;;;;;8.15;7.45;;;;;;;19.39;100.00;101696.41;5026692;28;20021;-58
2022/07/21 00:11:28;;;;;;;8.85;8.00;;;;;;;19.37;100.00;101703.44;5026783;28;20079;-58
2022/07/21 00:13:54;;;;;;;8.98;8.27;;;;;;;19.35;100.00;101699.91;5027002;28;20470;-57
2022/07/21 00:16:20;;;;;;;8.45;7.70;;;;;;;19.34;100.00;101698.13;5026337;28;20063;-57
2022/07/21 00:18:45;;;;;;;8.95;8.25;;;;;;;19.26;100.00;101689.31;5026270;28;20432;-58
2022/07/21 00:21:12;;;;;;;8.50;7.80;;;;;;;19.19;100.00;101698.88;5026945;28;20029;-59
2022/07/21 00:23:38;;;;;;;10.48;9.30;;;;;;;19.09;100.00;101703.13;5026843;28;20377;-59
2022/07/21 00:26:03;;;;;;;10.25;8.63;;;;;;;19.11;100.00;101709.25;5030200;28;20032;-58
2022/07/21 00:28:30;;;;;;;9.30;8.50;;;;;;;19.13;100.00;101710.19;5028947;28;20041;-58
2022/07/21 00:30:55;;;;;;;10.02;9.10;;;;;;;19.16;100.00;101702.34;5030211;28;20417;-59
2022/07/21 00:33:20;;;;;;;9.13;8.38;;;;;;;19.20;100.00;101703.25;5030577;28;20025;-59
2022/07/21 00:35:46;;;;;;;9.70;8.73;;;;;;;19.19;100.00;101705.00;5030313;28;20022;-58
2022/07/21 00:38:11;;;;;;;10.77;9.88;;;;;;;19.12;100.00;101700.56;5030600;28;20036;-59
2022/07/21 00:40:37;;;;;;;10.95;9.95;;;;;;;19.08;100.00;101701.38;5030177;28;20053;-58
2022/07/21 00:43:02;;;;;;;10.05;9.15;;;;;;;19.08;100.00;101707.50;5030427;28;20029;-59
2022/07/21 00:45:28;;;;;;;10.82;9.63;;;;;;;19.08;100.00;101696.09;5029880;28;20025;-58
2022/07/21 00:47:54;;;;;;;10.68;9.68;;;;;;;19.05;100.00;101701.34;5029996;28;20025;-58
2022/07/21 00:50:20;;;;;;;10.95;10.00;;;;;;;19.06;100.00;101703.09;5030135;28;20029;-58
2022/07/21 00:52:47;;;;;;;11.43;10.32;;;;;;;19.06;100.00;101700.47;5029749;28;20030;-58
2022/07/21 00:55:16;;;;;;;12.18;10.93;;;;;;;19.00;100.00;101700.38;5030343;28;20037;-58
2022/07/21 00:57:43;;;;;;;11.07;10.00;;;;;;;19.02;100.00;101696.03;5029856;28;20030;-59
2022/07/21 01:00:14;;;;;;;11.07;9.98;;;;;;;18.96;100.00;101692.47;5029870;28;20061;-58
2022/07/21 01:02:40;;;;;;;11.15;10.15;;;;;;;18.97;100.00;101696.00;5030357;28;20028;-58
2022/07/21 01:05:14;;;;;;;10.73;9.82;;;;;;;18.95;100.00;101685.47;5029960;28;20025;-59
2022/07/21 01:07:41;;;;;;;11.30;10.30;;;;;;;18.92;100.00;101680.22;5030128;28;20347;-58
2022/07/21 01:10:07;;;;;;;12.00;10.82;;;;;;;18.90;100.00;101673.16;5029305;28;20032;-58
2022/07/21 01:12:32;;;;;;;11.48;10.30;;;;;;;18.91;100.00;101673.19;5028885;28;20037;-57
2022/07/21 01:14:58;;;;;;;12.20;11.07;;;;;;;18.97;100.00;101680.25;5029625;28;20063;-59
2022/07/21 01:17:23;;;;;;;12.50;11.27;;;;;;;18.92;100.00;101685.47;5024616;28;20053;-58
2022/07/21 01:19:50;;;;;;;10.88;9.80;;;;;;;18.91;100.00;101673.19;5021076;28;20188;-59
2022/07/21 01:22:16;;;;;;;12.38;11.18;;;;;;;18.91;100.00;101673.19;5029696;28;20112;-58
2022/07/21 01:24:41;;;;;;;11.88;10.77;;;;;;;18.88;100.00;101673.16;5029024;28;20560;-59
2022/07/21 01:27:07;;;;;;;13.02;11.88;;;;;;;18.82;100.00;101671.34;5015152;28;20029;-58
2022/07/21 01:29:33;;;;;;;12.25;11.25;;;;;;;18.71;100.00;101665.06;5029539;28;20097;-58
2022/07/21 01:31:58;;;;;;;13.23;12.00;;;;;;;18.73;100.00;101668.59;5028729;28;20036;-58
2022/07/21 01:34:24;;;;;;;12.32;11.13;;;;;;;18.70;100.00;101679.06;5029121;28;20431;-58
2022/07/21 01:36:50;;;;;;;12.32;10.98;;;;;;;18.71;100.00;101680.81;5029156;28;20029;-58
2022/07/21 01:42:00;;;;;;;12.90;11.70;;;;;;;18.62;100.00;101681.59;5028790;28;20100;-57
2022/07/21 01:44:25;;;;;;;12.30;11.32;;;;;;;18.65;100.00;101672.91;5028574;28;20061;-57
2022/07/21 01:46:51;;;;;;;12.23;11.05;;;;;;;18.68;100.00;101673.81;5028630;28;20032;-59
2022/07/21 01:49:18;;;;;;;13.38;12.15;;;;;;;18.68;100.00;101683.41;5028960;28;20079;-59
2022/07/21 01:51:44;;;;;;;12.80;11.65;;;;;;;18.71;100.00;101675.56;5028961;28;20362;-58
2022/07/21 01:54:11;;;;;;;12.40;11.35;;;;;;;18.71;100.00;101665.97;5028979;28;20091;-58
2022/07/21 01:56:37;;;;;;;12.30;11.10;;;;;;;18.72;100.00;101666.84;5028394;28;20057;-58
2022/07/21 01:59:03;;;;;;;12.40;11.20;;;;;;;18.72;100.00;101670.38;5028999;28;20435;-58
2022/07/21 02:01:30;;;;;;;13.10;11.90;;;;;;;18.74;100.00;101670.38;5029021;28;20164;-58
2022/07/21 02:03:58;;;;;;;11.70;10.55;;;;;;;18.75;100.00;101666.00;5028410;28;20034;-58
2022/07/21 02:06:25;;;;;;;12.88;11.40;;;;;;;18.71;100.00;101671.22;5028733;28;20045;-58
2022/07/21 02:08:50;;;;;;;12.00;10.93;;;;;;;18.74;100.00;101674.75;5028774;28;20029;-57
2022/07/21 02:11:17;;;;;;;13.38;12.00;;;;;;;18.71;100.00;101679.09;5028540;28;20025;-58
2022/07/21 02:13:43;;;;;;;12.50;11.32;;;;;;;18.69;100.00;101679.97;5028583;28;20024;-58
2022/07/21 02:16:09;;;;;;;14.20;12.90;;;;;;;18.54;100.00;101673.66;5027852;28;20099;-58
2022/07/21 02:18:35;;;;;;;13.85;12.52;;;;;;;18.52;100.00;101666.63;5013441;28;20101;-58
2022/07/21 02:21:00;;;;;;;14.38;13.18;;;;;;;18.53;100.00;101665.78;5028401;28;20151;-58
2022/07/21 02:23:26;;;;;;;15.00;13.60;;;;;;;18.56;100.00;101665.81;5028641;28;20059;-57
2022/07/21 02:25:52;;;;;;;15.27;13.88;;;;;;;18.58;100.00;101659.69;5028191;28;20021;-58
2022/07/21 02:28:19;;;;;;;14.02;12.73;;;;;;;18.58;100.00;101664.09;5027718;28;20145;-59
2022/07/21 02:30:45;;;;;;;14.60;13.20;;;;;;;18.62;100.00;101660.59;5027337;28;20017;-57
2022/07/21 02:33:11;;;;;;;14.82;13.43;;;;;;;18.62;100.00;101655.34;5027969;28;20041;-58
2022/07/21 02:35:37;;;;;;;16.00;14.00;;;;;;;18.63;100.00;101659.75;5027546;28;20044;-57
2022/07/21 02:38:03;;;;;;;15.13;13.73;;;;;;;18.56;100.00;101656.19;5026331;28;20029;-57
2022/07/21 02:40:28;;;;;;;15.85;14.35;;;;;;;18.54;100.00;101664.91;5027111;28;20053;-57
2022/07/21 02:42:54;;;;;;;14.25;12.88;;;;;;;18.56;100.00;101660.56;5025479;28;20063;-58
2022/07/21 02:45:20;;;;;;;15.15;13.85;;;;;;;18.57;100.00;101667.53;5019894;28;20036;-58
2022/07/21 02:47:49;;;;;;;15.95;14.35;;;;;;;18.58;100.00;101654.44;5027784;28;20461;-58
2022/07/21 02:50:15;;;;;;;16.48;14.88;;;;;;;18.52;100.00;101649.13;5027597;28;20381;-58
2022/07/21 02:52:41;;;;;;;16.05;14.57;;;;;;;18.56;100.00;101650.06;5027899;28;20025;-58
2022/07/21 02:55:07;;;;;;;16.55;14.95;;;;;;;18.59;100.00;101652.72;5028037;28;20028;-58
2022/07/21 02:57:32;;;;;;;16.48;14.98;;;;;;;18.53;100.00;101650.03;5027525;28;20030;-59
2022/07/21 02:59:57;;;;;;;17.38;15.57;;;;;;;18.45;100.00;101656.06;5027426;28;20030;-58
2022/07/21 03:02:24;;;;;;;16.70;15.20;;;;;;;18.39;100.00;101655.09;5026596;28;20083;-58
2022/07/21 03:04:49;;;;;;;17.70;15.98;;;;;;;18.41;100.00;101662.13;5027578;28;20061;-58
2022/07/21 03:07:14;;;;;;;18.23;16.35;;;;;;;18.41;100.00;101661.22;5017717;28;20450;-57
2022/07/21 03:09:40;;;;;;;17.33;15.70;;;;;;;18.43;100.00;101660.41;5022623;28;20163;-57
2022/07/21 03:12:05;;;;;;;16.88;15.30;;;;;;;18.44;100.00;101649.03;5027659;28;20031;-58
2022/07/21 03:14:30;;;;;;;17.60;15.82;;;;;;;18.45;100.00;101653.44;5027314;28;20044;-57
2022/07/21 03:16:57;;;;;;;18.15;16.05;;;;;;;18.47;100.00;101650.84;5025483;28;20196;-59
2022/07/21 03:19:22;;;;;;;16.02;14.52;;;;;;;18.51;100.00;101646.50;5014763;28;20025;-58
2022/07/21 03:21:48;;;;;;;19.63;17.55;;;;;;;18.45;100.00;101644.69;5027725;28;20404;-58
2022/07/21 03:24:13;;;;;;;17.95;16.08;;;;;;;18.47;100.00;101646.44;5026991;28;20484;-58
2022/07/21 03:26:38;;;;;;;18.05;16.17;;;;;;;18.47;100.00;101645.59;5026860;28;20075;-58
2022/07/21 03:29:04;;;;;;;19.23;17.23;;;;;;;18.45;100.00;101642.94;5026499;28;20381;-59
2022/07/21 03:31:29;;;;;;;18.45;16.75;;;;;;;18.41;100.00;101643.75;5027632;28;20549;-59
2022/07/21 03:33:54;;;;;;;18.08;16.23;;;;;;;18.41;100.00;101643.75;5026735;28;20459;-59
2022/07/21 03:36:22;;;;;;;17.67;15.95;;;;;;;18.42;100.00;101645.50;5026903;28;20037;-59
2022/07/21 03:38:47;;;;;;;17.73;16.13;;;;;;;18.42;100.00;101658.63;5027390;28;20060;-59
2022/07/21 03:41:12;;;;;;;17.67;16.08;;;;;;;18.45;100.00;101645.56;5026872;28;20548;-59
2022/07/21 03:43:38;;;;;;;18.00;16.27;;;;;;;18.46;100.00;101642.06;5026403;28;20072;-58
2022/07/21 03:46:03;;;;;;;17.80;16.15;;;;;;;18.51;100.00;101646.50;5026676;28;20013;-58
2022/07/21 03:48:28;;;;;;;17.65;15.75;;;;;;;18.55;100.00;101654.41;5024917;28;20033;-59
2022/07/21 03:50:54;;;;;;;17.67;15.93;;;;;;;18.55;100.00;101654.41;5026248;28;20462;-58
2022/07/21 03:53:19;;;;;;;17.92;16.20;;;;;;;18.52;100.00;101653.50;5026876;28;20031;-58
2022/07/21 03:55:45;;;;;;;18.05;16.45;;;;;;;18.48;100.00;101655.19;5026593;28;20030;-58
2022/07/21 03:58:12;;;;;;;17.25;15.65;;;;;;;18.51;100.00;101668.34;5026519;28;20534;-58
2022/07/21 04:00:41;;;;;;;17.00;15.20;;;;;;;18.55;100.00;101666.66;5030485;28;20107;-58
2022/07/21 04:03:07;;;;;;;16.83;15.27;;;;;;;18.57;100.00;101670.16;5030583;28;20485;-59
2022/07/21 04:05:33;;;;;;;16.15;14.55;;;;;;;18.58;100.00;101669.31;5030573;28;20029;-57
2022/07/21 04:07:58;;;;;;;17.55;15.65;;;;;;;18.59;100.00;101671.06;5028426;28;20022;-58
2022/07/21 04:10:27;;;;;;;16.90;15.13;;;;;;;18.59;100.00;101666.72;5029252;28;20112;-58
2022/07/21 04:12:53;;;;;;;17.35;15.75;;;;;;;18.56;100.00;101664.06;5029186;28;20547;-58
2022/07/21 04:15:19;;;;;;;16.73;15.13;;;;;;;18.55;100.00;101670.16;5028737;28;20084;-58
2022/07/21 04:17:45;;;;;;;16.48;14.98;;;;;;;18.56;100.00;101678.91;5020293;28;20057;-57
2022/07/21 04:20:13;;;;;;;14.27;12.95;;;;;;;18.56;100.00;101666.69;5022697;28;20830;-58
2022/07/21 04:22:39;;;;;;;15.63;14.15;;;;;;;18.59;100.00;101665.81;5015940;28;20079;-58
2022/07/21 04:25:05;;;;;;;15.20;13.60;;;;;;;18.61;100.00;101669.34;5028600;28;20051;-58
2022/07/21 04:27:31;;;;;;;15.27;13.77;;;;;;;18.64;100.00;101658.88;5027979;28;20197;-58
2022/07/21 04:29:56;;;;;;;15.35;13.45;;;;;;;18.65;100.00;101660.66;5027921;28;20111;-59
2022/07/21 04:32:22;;;;;;;15.02;13.63;;;;;;;18.63;100.00;101659.75;5027307;28;20615;-56
2022/07/21 04:34:47;;;;;;;15.65;14.15;;;;;;;18.57;100.00;101657.06;5028696;28;20056;-58
2022/07/21 04:37:12;;;;;;;16.23;14.55;;;;;;;18.57;100.00;101657.94;5028588;28;20584;-58
2022/07/21 04:39:39;;;;;;;16.67;14.95;;;;;;;18.54;100.00;101654.41;5028587;28;20460;-57
2022/07/21 04:42:04;;;;;;;18.40;16.52;;;;;;;18.35;100.00;101657.69;5028772;28;20615;-59
2022/07/21 04:44:29;;;;;;;19.08;17.23;;;;;;;18.25;100.00;101666.28;5029486;28;20022;-58
2022/07/21 04:46:55;;;;;;;20.17;16.80;;;;;;;18.22;100.00;101666.25;5030094;28;20454;-58
2022/07/21 04:49:20;;;;;;;19.80;17.30;;;;;;;18.17;100.00;101663.56;5029560;28;20033;-59
2022/07/21 04:51:45;;;;;;;19.30;17.25;;;;;;;18.09;100.00;101660.81;5029824;28;20513;-58
2022/07/21 04:54:13;;;;;;;17.08;15.30;;;;;;;18.07;100.00;101665.16;5029997;28;20104;-58
2022/07/21 04:56:39;;;;;;;18.13;16.13;;;;;;;18.09;100.00;101668.69;5030352;28;20033;-58
2022/07/21 04:59:04;;;;;;;18.38;16.58;;;;;;;18.11;100.00;101668.72;5029437;28;20029;-57
2022/07/21 05:01:30;;;;;;;17.58;15.73;;;;;;;18.13;100.00;101667.00;5030413;28;20022;-58
2022/07/21 05:03:55;;;;;;;17.25;15.55;;;;;;;18.10;100.00;101661.69;5029828;28;20029;-58
2022/07/21 05:06:20;;;;;;;20.58;16.33;;;;;;;18.04;100.00;101659.00;5030120;28;20113;-57
2022/07/21 05:08:45;;;;;;;18.20;14.90;;;;;;;17.96;100.00;101670.25;5029860;28;20025;-58
2022/07/21 05:11:11;;;;;;;17.77;14.93;;;;;;;17.98;100.00;101673.78;5029986;28;20029;-58
2022/07/21 05:13:36;;;;;;;22.80;16.40;;;;;;;17.97;100.00;101679.00;5030314;28;20052;-59
2022/07/21 05:16:01;;;;;;;18.30;15.95;;;;;;;17.94;100.00;101676.31;5030531;28;20022;-58
2022/07/21 05:18:26;;;;;;;17.38;15.68;;;;;;;17.92;100.00;101667.56;5016498;28;20030;-59
2022/07/21 05:20:52;;;;;;;16.48;15.07;;;;;;;17.95;100.00;101668.47;5029413;28;20123;-59
2022/07/21 05:23:17;;;;;;;17.10;15.30;;;;;;;18.00;100.00;101669.44;5030106;28;20021;-57
2022/07/21 05:25:42;;;;;;;17.10;15.40;;;;;;;18.00;100.00;101676.41;5016055;28;20017;-58
2022/07/21 05:28:08;;;;;;;16.90;15.18;;;;;;;17.98;100.00;101673.78;5030020;28;20136;-57
2022/07/21 05:30:33;;;;;;;19.15;15.30;;;;;;;18.04;100.00;101672.09;5013818;28;20017;-57
2022/07/21 05:32:58;;;;;;;16.25;14.55;;;;;;;18.11;100.00;101666.94;5017580;28;20160;-58
2022/07/21 05:35:24;;;;;;;17.50;15.10;;;;;;;18.10;100.00;101664.31;5016498;28;20021;-57
2022/07/21 05:37:49;;;;;;;18.13;14.82;;;;;;;18.03;100.00;101671.22;5022815;28;20034;-57
2022/07/21 05:40:15;;;;;;;17.20;14.68;;;;;;;17.97;100.00;101672.00;5009768;28;20041;-57
2022/07/21 05:42:40;;;;;;;18.77;15.65;;;;;;;18.00;100.00;101668.56;5014302;28;20026;-58
2022/07/21 05:45:06;;;;;;;16.98;15.25;;;;;;;17.93;100.00;101670.22;5018609;28;20029;-58
2022/07/21 05:47:31;;;;;;;18.05;15.77;;;;;;;17.96;100.00;101670.25;5018290;28;20052;-58
2022/07/21 05:49:58;;;;;;;16.75;15.05;;;;;;;17.98;100.00;101663.28;5028823;28;20041;-58
2022/07/21 05:52:23;;;;;;;16.85;14.15;;;;;;;18.04;100.00;101661.63;5021672;28;20517;-57
2022/07/21 05:54:48;;;;;;;17.67;15.15;;;;;;;18.04;100.00;101662.50;5026055;28;20104;-58
2022/07/21 05:57:14;;;;;;;20.42;15.90;;;;;;;18.06;100.00;101659.91;5026398;28;20025;-58
2022/07/21 05:59:39;;;;;;;20.17;17.15;;;;;;;18.08;100.00;101660.81;5022356;28;20048;-58
2022/07/21 06:02:04;;;;;;;17.83;14.98;;;;;;;18.10;100.00;101656.44;5008295;28;20032;-59
2022/07/21 06:04:30;;;;;;;18.70;16.55;;;;;;;18.11;100.00;101658.22;5013261;28;20403;-57
2022/07/21 06:06:55;;;;;;;18.00;16.30;;;;;;;18.17;100.00;101668.81;5008358;28;20083;-57
2022/07/21 06:09:20;;;;;;;57.80;25.70;;;;;;;18.25;100.00;101666.28;5008598;28;20097;-58
2022/07/21 06:11:46;;;;;;;20.70;17.98;;;;;;;18.20;100.00;101657.50;5009022;28;20022;-58
2022/07/21 06:14:11;;;;;;;23.38;18.83;;;;;;;18.20;100.00;101666.25;5008036;28;20444;-58
2022/07/21 06:16:37;;;;;;;24.75;18.23;;;;;;;18.23;100.00;101662.75;5008030;28;20030;-58
2022/07/21 06:19:03;;;;;;;20.90;17.75;;;;;;;18.28;100.00;101670.69;5013635;28;20021;-57
2022/07/21 06:21:29;;;;;;;22.58;18.38;;;;;;;18.30;100.00;101661.09;5027421;28;20564;-58
2022/07/21 06:23:54;;;;;;;21.40;19.10;;;;;;;18.34;100.00;101665.53;5027028;28;20045;-57
2022/07/21 06:26:19;;;;;;;25.42;21.73;;;;;;;18.33;100.00;101663.78;5029014;28;20108;-58
2022/07/21 06:28:44;;;;;;;22.65;19.85;;;;;;;18.43;100.00;101659.50;5027925;28;20037;-58
2022/07/21 06:31:12;;;;;;;26.55;21.48;;;;;;;18.49;100.00;101659.59;5028157;28;20083;-58
2022/07/21 06:33:38;;;;;;;25.73;21.70;;;;;;;18.62;100.00;101660.59;5027725;28;20037;-58
2022/07/21 06:36:03;;;;;;;27.02;23.45;;;;;;;18.74;100.00;101656.38;5027512;28;20424;-58
2022/07/21 06:38:28;;;;;;;28.05;21.52;;;;;;;18.77;100.00;101659.03;5017479;28;20331;-59
2022/07/21 06:40:54;;;;;;;31.50;23.83;;;;;;;18.86;100.00;101653.88;5024906;28;20057;-57
2022/07/21 06:43:19;;;;;;;28.25;23.50;;;;;;;18.99;100.00;101659.25;5027510;28;20055;-57
2022/07/21 06:45:45;;;;;;;26.25;22.63;;;;;;;19.05;100.00;101667.19;5027932;28;20386;-57
2022/07/21 06:48:12;;;;;;;26.77;22.40;;;;;;;19.32;100.00;101678.84;5027849;28;20044;-57
2022/07/21 06:50:38;;;;;;;26.40;22.45;;;;;;;19.36;100.00;101678.00;5027381;28;20025;-57
2022/07/21 06:53:04;;;;;;;26.20;21.02;;;;;;;19.47;100.00;101672.84;5027583;28;20025;-59
2022/07/21 06:55:30;;;;;;;26.65;22.67;;;;;;;19.51;100.00;101671.13;5027876;28;20033;-58
2022/07/21 06:57:55;;;;;;;25.10;21.42;;;;;;;19.58;100.00;101678.19;5027447;28;20036;-58
2022/07/21 07:00:21;;;;;;;28.33;22.48;;;;;;;19.68;100.00;101682.63;5025776;28;20327;-57
2022/07/21 07:02:46;;;;;;;23.08;20.38;;;;;;;19.74;100.00;101687.06;5027555;28;20671;-58
2022/07/21 07:05:12;;;;;;;22.35;20.05;;;;;;;19.72;100.00;101688.78;5028057;28;20084;-59
2022/07/21 07:07:37;;;;;;;23.75;21.05;;;;;;;19.73;100.00;101689.69;5027169;28;20563;-57
2022/07/21 07:10:03;;;;;;;24.55;21.00;;;;;;;19.60;100.00;101688.69;5026852;28;20025;-56
2022/07/21 07:12:28;;;;;;;22.15;19.92;;;;;;;19.50;100.00;101698.28;5027898;28;20083;-57
2022/07/21 07:14:54;;;;;;;25.35;20.45;;;;;;;19.51;100.00;101706.16;5027608;28;20029;-58
2022/07/21 07:17:19;;;;;;;22.75;19.05;;;;;;;19.46;100.00;101701.72;5022272;28;20572;-58
2022/07/21 07:19:45;;;;;;;25.75;20.77;;;;;;;19.27;100.00;101691.03;5017723;28;20052;-58
2022/07/21 07:22:11;;;;;;;23.35;19.58;;;;;;;19.28;100.00;101698.09;5027290;28;20128;-58
2022/07/21 07:24:36;;;;;;;25.55;20.55;;;;;;;19.10;100.00;101683.00;5027685;28;20032;-58
2022/07/21 07:27:02;;;;;;;23.20;20.08;;;;;;;19.12;100.00;101682.19;5027832;28;20049;-58
2022/07/21 07:29:28;;;;;;;22.40;20.05;;;;;;;19.16;100.00;101683.97;5027877;28;20017;-57
2022/07/21 07:31:55;;;;;;;22.60;19.83;;;;;;;19.14;100.00;101685.69;5027489;28;20109;-57
2022/07/21 07:34:21;;;;;;;23.50;19.38;;;;;;;19.22;100.00;101682.25;5026700;28;20421;-58
2022/07/21 07:36:46;;;;;;;22.42;20.05;;;;;;;19.31;100.00;101679.72;5027373;28;20025;-57
2022/07/21 07:39:12;;;;;;;23.05;19.42;;;;;;;19.37;100.00;101684.16;5025345;28;20367;-58
2022/07/21 07:41:37;;;;;;;22.17;19.65;;;;;;;19.41;100.00;101686.81;5026844;28;20069;-58
2022/07/21 07:44:03;;;;;;;22.60;20.20;;;;;;;19.39;100.00;101680.66;5024317;28;20029;-59
2022/07/21 07:46:28;;;;;;;25.88;20.25;;;;;;;19.40;100.00;101682.44;5019771;28;20034;-57
2022/07/21 07:48:55;;;;;;;21.75;19.08;;;;;;;19.42;100.00;101682.44;5008354;28;20040;-58
2022/07/21 07:51:20;;;;;;;18.90;16.92;;;;;;;19.36;100.00;101696.41;5012388;28;20056;-58
2022/07/21 07:53:46;;;;;;;20.27;17.73;;;;;;;19.35;100.00;101694.66;5017194;28;20104;-57
2022/07/21 07:56:11;;;;;;;18.55;16.75;;;;;;;19.13;100.00;101697.06;5021530;28;20028;-59
2022/07/21 07:58:36;;;;;;;15.90;14.23;;;;;;;18.98;100.00;101694.25;5008050;28;20052;-58
2022/07/21 08:01:02;;;;;;;17.73;15.30;;;;;;;18.90;100.00;101697.69;5007267;28;20072;-57
2022/07/21 08:03:28;;;;;;;14.45;12.93;;;;;;;18.66;100.00;101688.66;5016737;28;20469;-58
2022/07/21 08:05:55;;;;;;;12.85;11.52;;;;;;;18.61;100.00;101695.59;5024890;28;20033;-58
2022/07/21 08:08:22;;;;;;;11.43;10.43;;;;;;;18.58;100.00;101701.69;5014843;28;20030;-58
2022/07/21 08:10:47;;;;;;;13.30;11.95;;;;;;;18.46;100.00;101694.53;5024687;28;20098;-58
2022/07/21 08:13:15;;;;;;;11.68;10.18;;;;;;;18.40;100.00;101701.47;5022337;28;20489;-59
2022/07/21 08:15:42;;;;;;;12.05;10.95;;;;;;;18.34;100.00;101697.00;5026182;28;20043;-58
2022/07/21 08:18:08;;;;;;;11.75;10.65;;;;;;;18.27;100.00;101700.41;5025360;28;20052;-57
2022/07/21 08:20:34;;;;;;;12.65;11.45;;;;;;;18.17;100.00;101710.78;5021399;28;20045;-59
2022/07/21 08:22:59;;;;;;;12.52;11.32;;;;;;;18.19;100.00;101698.56;5024587;28;20017;-58
2022/07/21 08:25:25;;;;;;;12.45;10.75;;;;;;;18.23;100.00;101705.63;5023618;28;20048;-58
2022/07/21 08:27:50;;;;;;;11.73;10.63;;;;;;;18.26;100.00;101703.91;5025382;28;20029;-58
2022/07/21 08:30:15;;;;;;;10.65;9.75;;;;;;;18.23;100.00;101704.72;5025911;28;20389;-58
2022/07/21 08:32:41;;;;;;;9.77;8.95;;;;;;;18.13;100.00;101701.09;5025257;28;20026;-58
2022/07/21 08:35:08;;;;;;;9.27;8.57;;;;;;;18.20;100.00;101710.84;5026281;28;20033;-58
2022/07/21 08:37:38;;;;;;;8.70;7.90;;;;;;;18.19;100.00;101703.81;5021734;28;20033;-59
2022/07/21 08:40:13;;;;;;;9.75;8.70;;;;;;;18.19;100.00;101709.06;5024147;28;20023;-58
2022/07/21 08:42:38;;;;;;;8.90;8.20;;;;;;;18.20;100.00;101705.59;5023225;28;20081;-59
2022/07/21 08:45:05;;;;;;;8.05;7.32;;;;;;;18.16;100.00;101702.88;5025648;28;20543;-59
2022/07/21 08:47:31;;;;;;;9.02;8.10;;;;;;;18.10;100.00;101708.88;5029107;28;20028;-59
2022/07/21 08:49:57;;;;;;;8.60;7.78;;;;;;;18.15;100.00;101704.63;5023520;28;20216;-58
2022/07/21 08:52:23;;;;;;;8.73;7.93;;;;;;;18.15;100.00;101707.25;5010731;28;20042;-59
2022/07/21 08:54:49;;;;;;;8.70;7.90;;;;;;;18.08;100.00;101702.75;5016008;28;20030;-58
2022/07/21 08:57:15;;;;;;;8.98;8.07;;;;;;;18.09;100.00;101702.78;5019337;28;20030;-57
2022/07/21 08:59:40;;;;;;;9.30;8.50;;;;;;;18.14;100.00;101702.88;5009609;28;20040;-58
2022/07/21 09:02:25;;;;;;;9.20;8.20;;;;;;;18.15;100.00;101706.38;5035296;28;20449;-59
2022/07/21 09:04:52;;;;;;;9.07;8.27;;;;;;;18.04;100.00;101703.56;5038410;28;20045;-58
2022/07/21 09:07:18;;;;;;;10.05;9.15;;;;;;;18.01;100.00;101704.38;5034711;28;20025;-57
2022/07/21 09:09:57;;;;;;;10.25;9.45;;;;;;;17.95;100.00;101710.41;5020648;28;20665;-59
2022/07/21 09:12:24;;;;;;;11.10;10.05;;;;;;;17.99;100.00;101709.63;5027070;28;20112;-58
2022/07/21 09:14:49;;;;;;;11.30;10.20;;;;;;;18.06;100.00;101707.09;5024580;28;20029;-59
2022/07/21 09:17:17;;;;;;;11.57;10.48;;;;;;;18.13;100.00;101703.72;5023378;28;20017;-59
2022/07/21 09:19:45;;;;;;;11.05;10.15;;;;;;;18.15;100.00;101712.47;5034537;28;20106;-59
2022/07/21 09:22:18;;;;;;;11.82;10.80;;;;;;;18.22;100.00;101716.97;5039346;28;20138;-58
2022/07/21 09:24:51;;;;;;;12.57;11.38;;;;;;;18.26;100.00;101712.63;5027242;28;20112;-59
2022/07/21 09:27:26;;;;;;;10.55;9.65;;;;;;;18.37;100.00;101712.78;5031801;28;20026;-59
2022/07/21 09:29:59;;;;;;;10.82;9.75;;;;;;;18.47;100.00;101719.91;5046149;28;20025;-59
2022/07/21 09:32:27;;;;;;;10.05;9.20;;;;;;;18.59;100.00;101721.84;5039502;28;20105;-58
2022/07/21 09:35:03;;;;;;;9.85;9.15;;;;;;;18.65;100.00;101728.91;5035904;28;20048;-59
2022/07/21 09:37:28;;;;;;;10.05;9.25;;;;;;;18.57;100.00;101725.28;5032752;28;20124;-59
2022/07/21 09:39:56;;;;;;;9.45;8.55;;;;;;;18.59;100.00;101729.72;5036111;28;20269;-59
2022/07/21 09:42:26;;;;;;;9.20;8.40;;;;;;;18.65;100.00;101722.75;5044378;28;20041;-59
2022/07/21 09:44:57;;;;;;;9.57;8.82;;;;;;;18.66;100.00;101722.78;5032099;28;20029;-58
2022/07/21 09:47:26;;;;;;;8.68;8.07;;;;;;;18.70;100.00;101729.84;5036232;28;20021;-58
2022/07/21 09:49:52;;;;;;;9.40;8.60;;;;;;;18.71;100.00;101728.97;5024054;28;20095;-58
2022/07/21 09:52:31;;;;;;;8.32;7.63;;;;;;;18.75;100.00;101729.00;5025758;28;20021;-58
2022/07/21 09:54:59;;;;;;;8.60;7.82;;;;;;;18.71;100.00;101734.22;5023266;28;20025;-58
2022/07/21 09:57:25;;;;;;;7.93;7.30;;;;;;;18.72;100.00;101737.72;5022923;28;20070;-58
2022/07/21 09:59:51;;;;;;;7.60;7.00;;;;;;;18.63;100.00;101735.88;5011844;28;20541;-58
2022/07/21 10:02:22;;;;;;;6.85;6.30;;;;;;;18.65;100.00;101739.41;5008271;28;20025;-58
2022/07/21 10:04:55;;;;;;;6.60;6.00;;;;;;;18.67;100.00;101740.28;5008380;28;20062;-57
2022/07/21 10:07:21;;;;;;;5.38;4.97;;;;;;;18.70;100.00;101748.22;5015260;28;20029;-58
2022/07/21 10:09:47;;;;;;;5.63;5.22;;;;;;;18.71;100.00;101747.34;5022419;28;20049;-59
2022/07/21 10:12:17;;;;;;;5.68;5.20;;;;;;;18.69;100.00;101758.69;5016487;28;20025;-58
2022/07/21 10:14:44;;;;;;;4.88;4.47;;;;;;;18.64;100.00;101758.63;5028404;28;20465;-58
2022/07/21 10:17:09;;;;;;;5.00;4.50;;;;;;;18.61;100.00;101761.22;5019361;28;20026;-57
2022/07/21 10:19:45;;;;;;;5.28;4.80;;;;;;;18.62;100.00;101759.47;5020782;28;20048;-59
2022/07/21 10:22:25;;;;;;;5.30;4.88;;;;;;;18.64;100.00;101762.97;5022181;28;20026;-59
2022/07/21 10:24:52;;;;;;;4.95;4.55;;;;;;;18.61;100.00;101763.84;5018988;28;20041;-58
2022/07/21 10:27:17;;;;;;;5.10;4.70;;;;;;;18.62;100.00;101765.59;5020315;28;20044;-58
2022/07/21 10:29:55;;;;;;;5.75;5.28;;;;;;;18.63;100.00;101770.00;5027149;28;20037;-59
2022/07/21 10:32:50;;;;;;;6.05;5.57;;;;;;;18.65;100.00;101775.25;5026937;28;20036;-59
2022/07/21 10:35:30;;;;;;;6.13;5.63;;;;;;;18.66;100.00;101772.66;5019834;28;20041;-57
2022/07/21 10:37:56;;;;;;;6.65;6.15;;;;;;;18.70;100.00;101774.47;5027317;28;20025;-56
2022/07/21 10:40:21;;;;;;;6.65;6.10;;;;;;;18.77;100.00;101775.41;5025022;28;20049;-58
2022/07/21 10:42:59;;;;;;;7.13;6.53;;;;;;;18.84;100.00;101781.63;5022144;28;20060;-58
2022/07/21 10:45:42;;;;;;;10.45;8.30;;;;;;;18.91;100.00;101788.72;5024984;28;20160;-59
2022/07/21 10:48:36;;;;;;;8.50;7.72;;;;;;;18.95;100.00;101782.63;5021191;28;20025;-58
2022/07/21 10:51:06;;;;;;;7.97;6.60;;;;;;;18.94;100.00;101783.47;5022261;28;20060;-59
2022/07/21 10:53:32;;;;;;;7.70;7.07;;;;;;;18.93;100.00;101778.22;5023933;28;20473;-57
2022/07/21 10:55:57;;;;;;;6.97;6.43;;;;;;;18.90;100.00;101781.72;5021031;28;20029;-59
2022/07/21 10:58:24;;;;;;;7.75;7.00;;;;;;;18.92;100.00;101784.34;5019115;28;20176;-59
2022/07/21 11:01:03;;;;;;;7.53;6.93;;;;;;;18.90;100.00;101792.22;5025334;28;20021;-59
2022/07/21 11:03:30;;;;;;;8.02;7.32;;;;;;;18.88;100.00;101791.31;5021800;28;20055;-59
2022/07/21 11:06:14;;;;;;;9.63;8.60;;;;;;;18.79;100.00;101789.44;5018728;28;20441;-58